sensor_id;sensor_type;location;lat;lon;timestamp;P1;durP1;ratioP1;P2;durP2;ratioP2
9888;SDS011;4983;42.112;24.738;2023-07-13T00:01:59;5.87;;;5.00;;
9888;SDS011;4983;42.112;24.738;2023-07-13T00:04:26;11.03;;;6.00;;
9888;SDS011;4983;42.112;24.738;2023-07-13T00:06:53;25.70;;;7.33;;
9888;SDS011;4983;42.112;24.738;2023-07-13T00:09:20;8.77;;;5.63;;
9888;SDS011;4983;42.112;24.738;2023-07-13T00:11:50;8.00;;;4.67;;
9888;SDS011;4983;42.112;24.738;2023-07-13T00:14:17;7.53;;;4.80;;
9888;SDS011;4983;42.112;24.738;2023-07-13T00:16:44;7.17;;;4.80;;
9888;SDS011;4983;42.112;24.738;2023-07-13T00:19:11;9.63;;;4.67;;
9888;SDS011;4983;42.112;24.738;2023-07-13T00:21:38;9.27;;;5.03;;
9888;SDS011;4983;42.112;24.738;2023-07-13T00:24:04;7.63;;;4.87;;
9888;SDS011;4983;42.112;24.738;2023-07-13T00:26:31;6.10;;;4.57;;
9888;SDS011;4983;42.112;24.738;2023-07-13T00:29:00;6.73;;;5.50;;
9888;SDS011;4983;42.112;24.738;2023-07-13T00:31:27;8.30;;;5.13;;
9888;SDS011;4983;42.112;24.738;2023-07-13T00:33:54;7.77;;;4.77;;
9888;SDS011;4983;42.112;24.738;2023-07-13T00:36:21;6.63;;;4.93;;
9888;SDS011;4983;42.112;24.738;2023-07-13T00:38:47;6.80;;;5.20;;
9888;SDS011;4983;42.112;24.738;2023-07-13T00:41:14;7.17;;;5.20;;
9888;SDS011;4983;42.112;24.738;2023-07-13T00:43:41;6.77;;;4.70;;
9888;SDS011;4983;42.112;24.738;2023-07-13T00:46:16;6.77;;;4.80;;
9888;SDS011;4983;42.112;24.738;2023-07-13T00:48:43;5.50;;;4.90;;
9888;SDS011;4983;42.112;24.738;2023-07-13T00:51:11;8.10;;;4.63;;
9888;SDS011;4983;42.112;24.738;2023-07-13T00:53:38;6.90;;;4.87;;
9888;SDS011;4983;42.112;24.738;2023-07-13T00:56:05;5.47;;;4.50;;
9888;SDS011;4983;42.112;24.738;2023-07-13T00:58:32;7.70;;;5.27;;
9888;SDS011;4983;42.112;24.738;2023-07-13T01:01:00;4.90;;;4.37;;
9888;SDS011;4983;42.112;24.738;2023-07-13T01:03:28;5.63;;;4.37;;
9888;SDS011;4983;42.112;24.738;2023-07-13T01:05:54;6.70;;;4.90;;
9888;SDS011;4983;42.112;24.738;2023-07-13T01:08:21;5.73;;;4.70;;
9888;SDS011;4983;42.112;24.738;2023-07-13T01:10:52;6.60;;;5.10;;
9888;SDS011;4983;42.112;24.738;2023-07-13T01:13:18;6.30;;;4.87;;
9888;SDS011;4983;42.112;24.738;2023-07-13T01:15:46;5.07;;;4.57;;
9888;SDS011;4983;42.112;24.738;2023-07-13T01:18:15;5.83;;;4.73;;
9888;SDS011;4983;42.112;24.738;2023-07-13T01:20:47;6.60;;;5.40;;
9888;SDS011;4983;42.112;24.738;2023-07-13T01:23:14;4.87;;;4.13;;
9888;SDS011;4983;42.112;24.738;2023-07-13T01:25:42;6.63;;;4.80;;
9888;SDS011;4983;42.112;24.738;2023-07-13T01:28:08;6.23;;;4.80;;
9888;SDS011;4983;42.112;24.738;2023-07-13T01:30:35;6.73;;;4.53;;
9888;SDS011;4983;42.112;24.738;2023-07-13T01:33:03;6.30;;;4.50;;
9888;SDS011;4983;42.112;24.738;2023-07-13T01:35:30;5.87;;;4.50;;
9888;SDS011;4983;42.112;24.738;2023-07-13T01:37:58;5.70;;;4.60;;
9888;SDS011;4983;42.112;24.738;2023-07-13T01:40:26;6.30;;;5.00;;
9888;SDS011;4983;42.112;24.738;2023-07-13T01:42:53;5.70;;;4.80;;
9888;SDS011;4983;42.112;24.738;2023-07-13T01:45:19;6.17;;;4.47;;
9888;SDS011;4983;42.112;24.738;2023-07-13T01:47:46;6.43;;;4.60;;
9888;SDS011;4983;42.112;24.738;2023-07-13T01:50:13;5.57;;;4.13;;
9888;SDS011;4983;42.112;24.738;2023-07-13T01:52:39;6.30;;;4.60;;
9888;SDS011;4983;42.112;24.738;2023-07-13T01:55:08;5.20;;;4.40;;
9888;SDS011;4983;42.112;24.738;2023-07-13T01:57:34;6.07;;;5.20;;
9888;SDS011;4983;42.112;24.738;2023-07-13T02:00:01;6.07;;;4.40;;
9888;SDS011;4983;42.112;24.738;2023-07-13T02:02:28;10.13;;;4.30;;
9888;SDS011;4983;42.112;24.738;2023-07-13T02:04:55;5.70;;;4.20;;
9888;SDS011;4983;42.112;24.738;2023-07-13T02:07:22;7.37;;;4.90;;
9888;SDS011;4983;42.112;24.738;2023-07-13T02:09:48;5.90;;;4.23;;
9888;SDS011;4983;42.112;24.738;2023-07-13T02:12:16;6.13;;;4.33;;
9888;SDS011;4983;42.112;24.738;2023-07-13T02:14:43;5.63;;;4.30;;
9888;SDS011;4983;42.112;24.738;2023-07-13T02:17:09;7.40;;;4.73;;
9888;SDS011;4983;42.112;24.738;2023-07-13T02:19:36;8.00;;;4.50;;
9888;SDS011;4983;42.112;24.738;2023-07-13T02:22:03;7.23;;;4.13;;
9888;SDS011;4983;42.112;24.738;2023-07-13T02:24:30;6.20;;;4.43;;
9888;SDS011;4983;42.112;24.738;2023-07-13T02:26:57;7.40;;;4.53;;
9888;SDS011;4983;42.112;24.738;2023-07-13T02:29:25;4.73;;;4.30;;
9888;SDS011;4983;42.112;24.738;2023-07-13T02:31:51;4.73;;;4.23;;
9888;SDS011;4983;42.112;24.738;2023-07-13T02:34:18;4.77;;;3.97;;
9888;SDS011;4983;42.112;24.738;2023-07-13T02:36:45;6.67;;;4.10;;
9888;SDS011;4983;42.112;24.738;2023-07-13T02:39:12;4.70;;;4.10;;
9888;SDS011;4983;42.112;24.738;2023-07-13T02:41:39;5.07;;;3.83;;
9888;SDS011;4983;42.112;24.738;2023-07-13T02:44:05;5.27;;;4.03;;
9888;SDS011;4983;42.112;24.738;2023-07-13T02:46:35;6.33;;;4.50;;
9888;SDS011;4983;42.112;24.738;2023-07-13T02:49:02;5.30;;;4.23;;
9888;SDS011;4983;42.112;24.738;2023-07-13T02:51:29;6.43;;;4.60;;
9888;SDS011;4983;42.112;24.738;2023-07-13T02:53:57;5.87;;;4.10;;
9888;SDS011;4983;42.112;24.738;2023-07-13T02:56:25;6.27;;;4.33;;
9888;SDS011;4983;42.112;24.738;2023-07-13T02:58:53;4.87;;;3.87;;
9888;SDS011;4983;42.112;24.738;2023-07-13T03:01:21;5.63;;;4.07;;
9888;SDS011;4983;42.112;24.738;2023-07-13T03:03:49;5.63;;;4.03;;
9888;SDS011;4983;42.112;24.738;2023-07-13T03:06:16;6.80;;;4.23;;
9888;SDS011;4983;42.112;24.738;2023-07-13T03:08:43;6.27;;;4.13;;
9888;SDS011;4983;42.112;24.738;2023-07-13T03:11:12;5.83;;;3.73;;
9888;SDS011;4983;42.112;24.738;2023-07-13T03:13:39;6.10;;;4.10;;
9888;SDS011;4983;42.112;24.738;2023-07-13T03:16:06;6.23;;;4.30;;
9888;SDS011;4983;42.112;24.738;2023-07-13T03:18:33;6.07;;;4.30;;
9888;SDS011;4983;42.112;24.738;2023-07-13T03:21:01;5.63;;;4.40;;
9888;SDS011;4983;42.112;24.738;2023-07-13T03:23:28;5.50;;;4.03;;
9888;SDS011;4983;42.112;24.738;2023-07-13T03:26:02;5.37;;;3.70;;
9888;SDS011;4983;42.112;24.738;2023-07-13T03:28:29;5.93;;;3.80;;
9888;SDS011;4983;42.112;24.738;2023-07-13T03:31:02;4.70;;;4.00;;
9888;SDS011;4983;42.112;24.738;2023-07-13T03:33:29;4.80;;;3.50;;
9888;SDS011;4983;42.112;24.738;2023-07-13T03:35:56;6.30;;;4.30;;
9888;SDS011;4983;42.112;24.738;2023-07-13T03:38:24;6.83;;;4.00;;
9888;SDS011;4983;42.112;24.738;2023-07-13T03:40:51;4.40;;;3.90;;
9888;SDS011;4983;42.112;24.738;2023-07-13T03:43:18;4.93;;;3.70;;
9888;SDS011;4983;42.112;24.738;2023-07-13T03:45:45;5.90;;;3.90;;
9888;SDS011;4983;42.112;24.738;2023-07-13T03:48:12;6.90;;;3.83;;
9888;SDS011;4983;42.112;24.738;2023-07-13T03:50:38;4.43;;;3.53;;
9888;SDS011;4983;42.112;24.738;2023-07-13T03:53:05;5.37;;;3.77;;
9888;SDS011;4983;42.112;24.738;2023-07-13T03:55:33;5.27;;;3.70;;
9888;SDS011;4983;42.112;24.738;2023-07-13T03:58:24;4.57;;;3.27;;
9888;SDS011;4983;42.112;24.738;2023-07-13T04:00:47;7.73;;;3.90;;
9888;SDS011;4983;42.112;24.738;2023-07-13T04:03:13;7.80;;;3.90;;
9888;SDS011;4983;42.112;24.738;2023-07-13T04:05:40;5.77;;;4.07;;
9888;SDS011;4983;42.112;24.738;2023-07-13T04:08:06;6.70;;;3.90;;
9888;SDS011;4983;42.112;24.738;2023-07-13T04:10:34;5.57;;;3.30;;
9888;SDS011;4983;42.112;24.738;2023-07-13T04:13:01;6.50;;;3.57;;
9888;SDS011;4983;42.112;24.738;2023-07-13T04:15:28;8.20;;;3.80;;
9888;SDS011;4983;42.112;24.738;2023-07-13T04:17:55;4.43;;;3.57;;
9888;SDS011;4983;42.112;24.738;2023-07-13T04:20:22;7.23;;;3.87;;
9888;SDS011;4983;42.112;24.738;2023-07-13T04:22:49;16.37;;;5.30;;
9888;SDS011;4983;42.112;24.738;2023-07-13T04:25:15;6.07;;;4.50;;
9888;SDS011;4983;42.112;24.738;2023-07-13T04:27:44;5.57;;;3.70;;
9888;SDS011;4983;42.112;24.738;2023-07-13T04:30:10;4.43;;;3.67;;
9888;SDS011;4983;42.112;24.738;2023-07-13T04:32:37;5.53;;;3.80;;
9888;SDS011;4983;42.112;24.738;2023-07-13T04:35:04;7.43;;;3.83;;
9888;SDS011;4983;42.112;24.738;2023-07-13T04:37:31;4.97;;;3.80;;
9888;SDS011;4983;42.112;24.738;2023-07-13T04:39:57;5.50;;;3.60;;
9888;SDS011;4983;42.112;24.738;2023-07-13T04:42:24;6.20;;;3.97;;
9888;SDS011;4983;42.112;24.738;2023-07-13T04:44:52;4.43;;;3.47;;
9888;SDS011;4983;42.112;24.738;2023-07-13T04:47:19;7.97;;;3.60;;
9888;SDS011;4983;42.112;24.738;2023-07-13T04:49:45;4.67;;;3.93;;
9888;SDS011;4983;42.112;24.738;2023-07-13T04:52:12;7.90;;;3.63;;
9888;SDS011;4983;42.112;24.738;2023-07-13T04:54:39;9.73;;;4.57;;
9888;SDS011;4983;42.112;24.738;2023-07-13T04:57:06;4.63;;;4.10;;
9888;SDS011;4983;42.112;24.738;2023-07-13T04:59:33;7.93;;;4.60;;
9888;SDS011;4983;42.112;24.738;2023-07-13T05:02:01;4.97;;;4.00;;
9888;SDS011;4983;42.112;24.738;2023-07-13T05:04:28;4.73;;;4.23;;
9888;SDS011;4983;42.112;24.738;2023-07-13T05:06:55;5.27;;;4.00;;
9888;SDS011;4983;42.112;24.738;2023-07-13T05:09:21;7.20;;;4.30;;
9888;SDS011;4983;42.112;24.738;2023-07-13T05:11:48;8.67;;;4.47;;
9888;SDS011;4983;42.112;24.738;2023-07-13T05:14:15;4.87;;;4.23;;
9888;SDS011;4983;42.112;24.738;2023-07-13T05:16:41;8.87;;;5.00;;
9888;SDS011;4983;42.112;24.738;2023-07-13T05:19:10;6.90;;;4.53;;
9888;SDS011;4983;42.112;24.738;2023-07-13T05:21:36;4.30;;;3.63;;
9888;SDS011;4983;42.112;24.738;2023-07-13T05:24:03;5.50;;;4.17;;
9888;SDS011;4983;42.112;24.738;2023-07-13T05:26:30;5.07;;;4.07;;
9888;SDS011;4983;42.112;24.738;2023-07-13T05:28:57;4.53;;;4.03;;
9888;SDS011;4983;42.112;24.738;2023-07-13T05:31:24;6.23;;;4.77;;
9888;SDS011;4983;42.112;24.738;2023-07-13T05:33:50;8.47;;;4.83;;
9888;SDS011;4983;42.112;24.738;2023-07-13T05:36:18;5.77;;;4.73;;
9888;SDS011;4983;42.112;24.738;2023-07-13T05:38:45;4.80;;;4.30;;
9888;SDS011;4983;42.112;24.738;2023-07-13T05:41:11;6.13;;;4.23;;
9888;SDS011;4983;42.112;24.738;2023-07-13T05:43:38;6.77;;;4.40;;
9888;SDS011;4983;42.112;24.738;2023-07-13T05:46:05;8.23;;;4.37;;
9888;SDS011;4983;42.112;24.738;2023-07-13T05:48:31;8.20;;;4.80;;
9888;SDS011;4983;42.112;24.738;2023-07-13T05:50:58;9.13;;;4.70;;
9888;SDS011;4983;42.112;24.738;2023-07-13T05:53:26;6.23;;;4.77;;
9888;SDS011;4983;42.112;24.738;2023-07-13T05:55:53;12.17;;;5.23;;
9888;SDS011;4983;42.112;24.738;2023-07-13T05:58:20;4.50;;;4.00;;
9888;SDS011;4983;42.112;24.738;2023-07-13T06:00:47;14.20;;;5.03;;
9888;SDS011;4983;42.112;24.738;2023-07-13T06:03:14;8.27;;;4.53;;
9888;SDS011;4983;42.112;24.738;2023-07-13T06:05:41;6.27;;;4.90;;
9888;SDS011;4983;42.112;24.738;2023-07-13T06:08:08;11.17;;;5.07;;
9888;SDS011;4983;42.112;24.738;2023-07-13T06:10:36;12.47;;;4.60;;
9888;SDS011;4983;42.112;24.738;2023-07-13T06:13:03;5.83;;;4.37;;
9888;SDS011;4983;42.112;24.738;2023-07-13T06:15:30;5.67;;;4.20;;
9888;SDS011;4983;42.112;24.738;2023-07-13T06:17:56;7.63;;;4.67;;
9888;SDS011;4983;42.112;24.738;2023-07-13T06:20:23;5.53;;;4.17;;
9888;SDS011;4983;42.112;24.738;2023-07-13T06:22:51;6.20;;;4.20;;
9888;SDS011;4983;42.112;24.738;2023-07-13T06:25:18;7.43;;;4.40;;
9888;SDS011;4983;42.112;24.738;2023-07-13T06:27:46;9.20;;;3.80;;
9888;SDS011;4983;42.112;24.738;2023-07-13T06:30:13;6.93;;;4.93;;
9888;SDS011;4983;42.112;24.738;2023-07-13T06:32:41;6.17;;;4.13;;
9888;SDS011;4983;42.112;24.738;2023-07-13T06:35:08;5.67;;;4.53;;
9888;SDS011;4983;42.112;24.738;2023-07-13T06:37:38;5.40;;;4.47;;
9888;SDS011;4983;42.112;24.738;2023-07-13T06:40:06;6.17;;;4.53;;
9888;SDS011;4983;42.112;24.738;2023-07-13T06:42:33;6.10;;;4.50;;
9888;SDS011;4983;42.112;24.738;2023-07-13T06:45:02;5.20;;;4.57;;
9888;SDS011;4983;42.112;24.738;2023-07-13T06:47:29;6.77;;;4.60;;
9888;SDS011;4983;42.112;24.738;2023-07-13T06:49:57;4.97;;;4.47;;
9888;SDS011;4983;42.112;24.738;2023-07-13T06:52:25;6.17;;;4.80;;
9888;SDS011;4983;42.112;24.738;2023-07-13T06:54:51;9.30;;;4.50;;
9888;SDS011;4983;42.112;24.738;2023-07-13T06:57:18;10.27;;;4.93;;
9888;SDS011;4983;42.112;24.738;2023-07-13T06:59:45;5.73;;;4.70;;
9888;SDS011;4983;42.112;24.738;2023-07-13T07:02:13;8.70;;;5.20;;
9888;SDS011;4983;42.112;24.738;2023-07-13T07:04:39;6.33;;;4.73;;
9888;SDS011;4983;42.112;24.738;2023-07-13T07:07:06;5.70;;;4.77;;
9888;SDS011;4983;42.112;24.738;2023-07-13T07:09:32;4.90;;;4.40;;
9888;SDS011;4983;42.112;24.738;2023-07-13T07:11:59;5.83;;;4.67;;
9888;SDS011;4983;42.112;24.738;2023-07-13T07:14:26;6.93;;;4.57;;
9888;SDS011;4983;42.112;24.738;2023-07-13T07:16:54;5.13;;;4.27;;
9888;SDS011;4983;42.112;24.738;2023-07-13T07:19:22;6.60;;;4.83;;
9888;SDS011;4983;42.112;24.738;2023-07-13T07:21:48;5.63;;;4.63;;
9888;SDS011;4983;42.112;24.738;2023-07-13T07:24:15;5.60;;;4.97;;
9888;SDS011;4983;42.112;24.738;2023-07-13T07:26:42;6.00;;;4.43;;
9888;SDS011;4983;42.112;24.738;2023-07-13T07:29:08;9.33;;;4.40;;
9888;SDS011;4983;42.112;24.738;2023-07-13T07:31:35;6.00;;;4.43;;
9888;SDS011;4983;42.112;24.738;2023-07-13T07:34:02;6.00;;;4.47;;
9888;SDS011;4983;42.112;24.738;2023-07-13T07:36:30;5.47;;;4.50;;
9888;SDS011;4983;42.112;24.738;2023-07-13T07:38:57;5.37;;;4.80;;
9888;SDS011;4983;42.112;24.738;2023-07-13T07:41:24;6.47;;;4.77;;
9888;SDS011;4983;42.112;24.738;2023-07-13T07:43:50;5.23;;;4.20;;
9888;SDS011;4983;42.112;24.738;2023-07-13T07:46:17;5.50;;;4.30;;
9888;SDS011;4983;42.112;24.738;2023-07-13T07:48:44;7.27;;;4.33;;
9888;SDS011;4983;42.112;24.738;2023-07-13T07:51:10;5.57;;;3.97;;
9888;SDS011;4983;42.112;24.738;2023-07-13T07:53:38;5.47;;;4.40;;
9888;SDS011;4983;42.112;24.738;2023-07-13T07:56:05;6.47;;;4.60;;
9888;SDS011;4983;42.112;24.738;2023-07-13T07:58:31;6.23;;;4.30;;
9888;SDS011;4983;42.112;24.738;2023-07-13T08:01:02;6.07;;;4.40;;
9888;SDS011;4983;42.112;24.738;2023-07-13T08:03:29;5.13;;;4.60;;
9888;SDS011;4983;42.112;24.738;2023-07-13T08:05:55;5.87;;;4.43;;
9888;SDS011;4983;42.112;24.738;2023-07-13T08:08:22;5.03;;;4.37;;
9888;SDS011;4983;42.112;24.738;2023-07-13T08:10:50;5.47;;;4.30;;
9888;SDS011;4983;42.112;24.738;2023-07-13T08:13:17;4.93;;;4.43;;
9888;SDS011;4983;42.112;24.738;2023-07-13T08:15:43;4.50;;;4.10;;
9888;SDS011;4983;42.112;24.738;2023-07-13T08:18:10;5.00;;;4.50;;
9888;SDS011;4983;42.112;24.738;2023-07-13T08:20:37;5.00;;;4.07;;
9888;SDS011;4983;42.112;24.738;2023-07-13T08:23:04;5.67;;;4.30;;
9888;SDS011;4983;42.112;24.738;2023-07-13T08:25:30;6.37;;;4.20;;
9888;SDS011;4983;42.112;24.738;2023-07-13T08:27:58;7.07;;;4.37;;
9888;SDS011;4983;42.112;24.738;2023-07-13T08:30:25;4.40;;;4.00;;
9888;SDS011;4983;42.112;24.738;2023-07-13T08:32:52;4.40;;;4.00;;
9888;SDS011;4983;42.112;24.738;2023-07-13T08:35:19;5.27;;;4.07;;
9888;SDS011;4983;42.112;24.738;2023-07-13T08:37:46;5.30;;;4.33;;
9888;SDS011;4983;42.112;24.738;2023-07-13T08:40:13;6.63;;;4.60;;
9888;SDS011;4983;42.112;24.738;2023-07-13T08:42:40;8.87;;;4.83;;
9888;SDS011;4983;42.112;24.738;2023-07-13T08:45:14;5.60;;;4.10;;
9888;SDS011;4983;42.112;24.738;2023-07-13T08:47:44;6.73;;;4.80;;
9888;SDS011;4983;42.112;24.738;2023-07-13T08:50:12;4.50;;;4.10;;
9888;SDS011;4983;42.112;24.738;2023-07-13T08:52:40;5.77;;;4.63;;
9888;SDS011;4983;42.112;24.738;2023-07-13T08:55:10;5.40;;;4.43;;
9888;SDS011;4983;42.112;24.738;2023-07-13T08:57:38;5.23;;;4.73;;
9888;SDS011;4983;42.112;24.738;2023-07-13T09:00:07;5.07;;;4.27;;
9888;SDS011;4983;42.112;24.738;2023-07-13T09:02:39;9.83;;;4.97;;
9888;SDS011;4983;42.112;24.738;2023-07-13T09:05:09;6.87;;;4.00;;
9888;SDS011;4983;42.112;24.738;2023-07-13T09:07:40;5.77;;;3.67;;
9888;SDS011;4983;42.112;24.738;2023-07-13T09:10:12;3.87;;;3.53;;
9888;SDS011;4983;42.112;24.738;2023-07-13T09:12:45;6.37;;;4.20;;
9888;SDS011;4983;42.112;24.738;2023-07-13T09:15:21;4.83;;;3.93;;
9888;SDS011;4983;42.112;24.738;2023-07-13T09:17:51;7.30;;;4.60;;
9888;SDS011;4983;42.112;24.738;2023-07-13T09:20:22;5.13;;;3.97;;
9888;SDS011;4983;42.112;24.738;2023-07-13T09:22:50;4.90;;;4.10;;
9888;SDS011;4983;42.112;24.738;2023-07-13T09:25:21;6.00;;;4.30;;
9888;SDS011;4983;42.112;24.738;2023-07-13T09:27:48;6.23;;;4.00;;
9888;SDS011;4983;42.112;24.738;2023-07-13T09:30:20;4.70;;;3.83;;
9888;SDS011;4983;42.112;24.738;2023-07-13T09:32:53;5.33;;;4.00;;
9888;SDS011;4983;42.112;24.738;2023-07-13T09:35:20;3.97;;;3.57;;
9888;SDS011;4983;42.112;24.738;2023-07-13T09:37:48;5.70;;;4.07;;
9888;SDS011;4983;42.112;24.738;2023-07-13T09:40:17;4.07;;;3.60;;
9888;SDS011;4983;42.112;24.738;2023-07-13T09:42:48;4.90;;;3.60;;
9888;SDS011;4983;42.112;24.738;2023-07-13T09:45:16;6.93;;;3.53;;
9888;SDS011;4983;42.112;24.738;2023-07-13T09:47:53;5.00;;;3.83;;
9888;SDS011;4983;42.112;24.738;2023-07-13T09:50:24;6.27;;;3.50;;
9888;SDS011;4983;42.112;24.738;2023-07-13T09:52:52;4.27;;;3.43;;
9888;SDS011;4983;42.112;24.738;2023-07-13T09:55:24;4.30;;;3.53;;
9888;SDS011;4983;42.112;24.738;2023-07-13T09:57:51;4.50;;;3.43;;
9888;SDS011;4983;42.112;24.738;2023-07-13T10:00:22;7.37;;;3.50;;
9888;SDS011;4983;42.112;24.738;2023-07-13T10:02:58;4.07;;;3.63;;
9888;SDS011;4983;42.112;24.738;2023-07-13T10:05:25;4.50;;;3.40;;
9888;SDS011;4983;42.112;24.738;2023-07-13T10:07:53;4.00;;;3.60;;
9888;SDS011;4983;42.112;24.738;2023-07-13T10:10:22;4.70;;;3.43;;
9888;SDS011;4983;42.112;24.738;2023-07-13T10:12:49;5.07;;;4.00;;
9888;SDS011;4983;42.112;24.738;2023-07-13T10:15:18;4.70;;;3.60;;
9888;SDS011;4983;42.112;24.738;2023-07-13T10:17:45;4.50;;;3.57;;
9888;SDS011;4983;42.112;24.738;2023-07-13T10:20:13;5.27;;;3.60;;
9888;SDS011;4983;42.112;24.738;2023-07-13T10:22:42;4.57;;;3.17;;
9888;SDS011;4983;42.112;24.738;2023-07-13T10:25:15;4.03;;;3.63;;
9888;SDS011;4983;42.112;24.738;2023-07-13T10:27:45;3.27;;;2.97;;
9888;SDS011;4983;42.112;24.738;2023-07-13T10:30:14;3.83;;;2.83;;
9888;SDS011;4983;42.112;24.738;2023-07-13T10:32:42;4.63;;;3.50;;
9888;SDS011;4983;42.112;24.738;2023-07-13T10:35:10;4.47;;;3.47;;
9888;SDS011;4983;42.112;24.738;2023-07-13T10:37:41;3.87;;;3.57;;
9888;SDS011;4983;42.112;24.738;2023-07-13T10:40:12;6.70;;;3.63;;
9888;SDS011;4983;42.112;24.738;2023-07-13T10:42:42;4.50;;;3.53;;
9888;SDS011;4983;42.112;24.738;2023-07-13T10:45:13;4.53;;;3.47;;
9888;SDS011;4983;42.112;24.738;2023-07-13T10:47:41;5.30;;;3.50;;
9888;SDS011;4983;42.112;24.738;2023-07-13T10:50:09;3.77;;;2.97;;
9888;SDS011;4983;42.112;24.738;2023-07-13T10:52:43;4.60;;;2.55;;
9888;SDS011;4983;42.112;24.738;2023-07-13T10:55:31;3.30;;;2.60;;
9888;SDS011;4983;42.112;24.738;2023-07-13T10:58:00;3.23;;;2.93;;
9888;SDS011;4983;42.112;24.738;2023-07-13T11:00:30;7.57;;;3.47;;
9888;SDS011;4983;42.112;24.738;2023-07-13T11:02:57;3.40;;;2.80;;
9888;SDS011;4983;42.112;24.738;2023-07-13T11:05:28;4.40;;;2.50;;
9888;SDS011;4983;42.112;24.738;2023-07-13T11:08:02;3.40;;;2.60;;
9888;SDS011;4983;42.112;24.738;2023-07-13T11:10:49;2.90;;;2.57;;
9888;SDS011;4983;42.112;24.738;2023-07-13T11:16:05;3.25;;;2.60;;
9888;SDS011;4983;42.112;24.738;2023-07-13T11:18:38;2.67;;;2.47;;
9888;SDS011;4983;42.112;24.738;2023-07-13T11:21:13;6.68;;;2.92;;
9888;SDS011;4983;42.112;24.738;2023-07-13T11:23:43;3.85;;;2.60;;
9888;SDS011;4983;42.112;24.738;2023-07-13T11:28:56;3.00;;;2.58;;
9888;SDS011;4983;42.112;24.738;2023-07-13T11:31:23;3.00;;;2.65;;
9888;SDS011;4983;42.112;24.738;2023-07-13T11:33:56;4.95;;;2.88;;
9888;SDS011;4983;42.112;24.738;2023-07-13T11:36:24;3.10;;;2.60;;
9888;SDS011;4983;42.112;24.738;2023-07-13T11:38:58;2.78;;;2.50;;
9888;SDS011;4983;42.112;24.738;2023-07-13T11:41:26;2.60;;;2.40;;
9888;SDS011;4983;42.112;24.738;2023-07-13T11:43:54;3.55;;;2.58;;
9888;SDS011;4983;42.112;24.738;2023-07-13T11:46:23;3.47;;;2.60;;
9888;SDS011;4983;42.112;24.738;2023-07-13T11:48:51;5.57;;;2.60;;
9888;SDS011;4983;42.112;24.738;2023-07-13T11:51:19;2.63;;;2.20;;
9888;SDS011;4983;42.112;24.738;2023-07-13T11:53:48;3.67;;;2.40;;
9888;SDS011;4983;42.112;24.738;2023-07-13T11:56:17;5.15;;;2.55;;
9888;SDS011;4983;42.112;24.738;2023-07-13T11:58:47;3.67;;;2.70;;
9888;SDS011;4983;42.112;24.738;2023-07-13T12:01:17;2.92;;;2.30;;
9888;SDS011;4983;42.112;24.738;2023-07-13T12:03:44;3.28;;;2.53;;
9888;SDS011;4983;42.112;24.738;2023-07-13T12:06:21;3.20;;;2.40;;
9888;SDS011;4983;42.112;24.738;2023-07-13T12:08:48;3.53;;;2.40;;
9888;SDS011;4983;42.112;24.738;2023-07-13T12:11:15;5.97;;;2.17;;
9888;SDS011;4983;42.112;24.738;2023-07-13T12:13:44;4.32;;;2.53;;
9888;SDS011;4983;42.112;24.738;2023-07-13T12:16:15;3.85;;;2.40;;
9888;SDS011;4983;42.112;24.738;2023-07-13T12:18:42;4.28;;;1.88;;
9888;SDS011;4983;42.112;24.738;2023-07-13T12:21:12;2.38;;;1.95;;
9888;SDS011;4983;42.112;24.738;2023-07-13T12:23:39;3.80;;;2.42;;
9888;SDS011;4983;42.112;24.738;2023-07-13T12:26:06;2.55;;;2.33;;
9888;SDS011;4983;42.112;24.738;2023-07-13T12:28:35;2.35;;;2.10;;
9888;SDS011;4983;42.112;24.738;2023-07-13T12:31:04;2.38;;;1.95;;
9888;SDS011;4983;42.112;24.738;2023-07-13T12:33:32;2.20;;;2.00;;
9888;SDS011;4983;42.112;24.738;2023-07-13T12:35:59;3.38;;;2.10;;
9888;SDS011;4983;42.112;24.738;2023-07-13T12:38:27;2.05;;;1.85;;
9888;SDS011;4983;42.112;24.738;2023-07-13T12:40:54;3.70;;;1.98;;
9888;SDS011;4983;42.112;24.738;2023-07-13T12:43:20;5.70;;;1.98;;
9888;SDS011;4983;42.112;24.738;2023-07-13T12:45:55;2.65;;;2.10;;
9888;SDS011;4983;42.112;24.738;2023-07-13T12:48:23;3.10;;;2.40;;
9888;SDS011;4983;42.112;24.738;2023-07-13T12:50:50;4.13;;;2.63;;
9888;SDS011;4983;42.112;24.738;2023-07-13T12:53:19;2.38;;;2.17;;
9888;SDS011;4983;42.112;24.738;2023-07-13T12:55:46;6.18;;;2.70;;
9888;SDS011;4983;42.112;24.738;2023-07-13T12:58:16;7.25;;;2.92;;
9888;SDS011;4983;42.112;24.738;2023-07-13T13:00:47;4.75;;;2.42;;
9888;SDS011;4983;42.112;24.738;2023-07-13T13:03:16;3.05;;;2.67;;
9888;SDS011;4983;42.112;24.738;2023-07-13T13:05:47;11.90;;;2.97;;
9888;SDS011;4983;42.112;24.738;2023-07-13T13:08:14;4.05;;;2.85;;
9888;SDS011;4983;42.112;24.738;2023-07-13T13:10:41;5.15;;;2.80;;
9888;SDS011;4983;42.112;24.738;2023-07-13T13:13:07;3.33;;;2.70;;
9888;SDS011;4983;42.112;24.738;2023-07-13T13:15:34;2.53;;;2.33;;
9888;SDS011;4983;42.112;24.738;2023-07-13T13:18:02;4.88;;;2.65;;
9888;SDS011;4983;42.112;24.738;2023-07-13T13:20:29;5.25;;;2.60;;
9888;SDS011;4983;42.112;24.738;2023-07-13T13:22:57;2.70;;;2.42;;
9888;SDS011;4983;42.112;24.738;2023-07-13T13:25:24;6.72;;;2.60;;
9888;SDS011;4983;42.112;24.738;2023-07-13T13:27:51;3.50;;;2.90;;
9888;SDS011;4983;42.112;24.738;2023-07-13T13:30:18;7.15;;;2.60;;
9888;SDS011;4983;42.112;24.738;2023-07-13T13:32:47;3.42;;;2.85;;
9888;SDS011;4983;42.112;24.738;2023-07-13T13:35:15;4.32;;;2.30;;
9888;SDS011;4983;42.112;24.738;2023-07-13T13:37:42;4.03;;;2.47;;
9888;SDS011;4983;42.112;24.738;2023-07-13T13:40:15;3.60;;;2.38;;
9888;SDS011;4983;42.112;24.738;2023-07-13T13:42:42;4.40;;;2.72;;
9888;SDS011;4983;42.112;24.738;2023-07-13T13:45:09;3.28;;;2.38;;
9888;SDS011;4983;42.112;24.738;2023-07-13T13:47:37;4.57;;;2.78;;
9888;SDS011;4983;42.112;24.738;2023-07-13T13:50:10;4.53;;;2.55;;
9888;SDS011;4983;42.112;24.738;2023-07-13T13:52:37;4.55;;;2.28;;
9888;SDS011;4983;42.112;24.738;2023-07-13T13:55:10;3.60;;;2.33;;
9888;SDS011;4983;42.112;24.738;2023-07-13T13:57:39;8.48;;;2.70;;
9888;SDS011;4983;42.112;24.738;2023-07-13T14:00:07;3.33;;;2.70;;
9888;SDS011;4983;42.112;24.738;2023-07-13T14:02:35;7.45;;;3.08;;
9888;SDS011;4983;42.112;24.738;2023-07-13T14:05:02;4.13;;;2.60;;
9888;SDS011;4983;42.112;24.738;2023-07-13T14:07:30;3.88;;;2.58;;
9888;SDS011;4983;42.112;24.738;2023-07-13T14:09:57;3.70;;;2.70;;
9888;SDS011;4983;42.112;24.738;2023-07-13T14:12:24;3.65;;;2.78;;
9888;SDS011;4983;42.112;24.738;2023-07-13T14:14:55;6.15;;;2.67;;
9888;SDS011;4983;42.112;24.738;2023-07-13T14:17:23;3.55;;;2.75;;
9888;SDS011;4983;42.112;24.738;2023-07-13T14:19:51;4.70;;;2.58;;
9888;SDS011;4983;42.112;24.738;2023-07-13T14:22:22;5.85;;;2.80;;
9888;SDS011;4983;42.112;24.738;2023-07-13T14:24:49;4.22;;;2.33;;
9888;SDS011;4983;42.112;24.738;2023-07-13T14:27:16;4.25;;;2.88;;
9888;SDS011;4983;42.112;24.738;2023-07-13T14:29:43;4.38;;;2.80;;
9888;SDS011;4983;42.112;24.738;2023-07-13T14:32:13;3.25;;;2.70;;
9888;SDS011;4983;42.112;24.738;2023-07-13T14:34:39;5.13;;;2.78;;
9888;SDS011;4983;42.112;24.738;2023-07-13T14:37:10;3.83;;;2.85;;
9888;SDS011;4983;42.112;24.738;2023-07-13T14:39:40;2.78;;;2.58;;
9888;SDS011;4983;42.112;24.738;2023-07-13T14:42:07;4.20;;;2.90;;
9888;SDS011;4983;42.112;24.738;2023-07-13T14:44:34;4.13;;;2.67;;
9888;SDS011;4983;42.112;24.738;2023-07-13T14:47:03;4.80;;;2.70;;
9888;SDS011;4983;42.112;24.738;2023-07-13T14:49:33;7.25;;;2.92;;
9888;SDS011;4983;42.112;24.738;2023-07-13T14:52:01;8.35;;;2.90;;
9888;SDS011;4983;42.112;24.738;2023-07-13T14:54:29;6.00;;;2.90;;
9888;SDS011;4983;42.112;24.738;2023-07-13T14:56:57;3.67;;;2.78;;
9888;SDS011;4983;42.112;24.738;2023-07-13T14:59:24;5.25;;;2.70;;
9888;SDS011;4983;42.112;24.738;2023-07-13T15:01:51;6.07;;;2.70;;
9888;SDS011;4983;42.112;24.738;2023-07-13T15:04:20;9.48;;;2.90;;
9888;SDS011;4983;42.112;24.738;2023-07-13T15:06:57;5.57;;;2.60;;
9888;SDS011;4983;42.112;24.738;2023-07-13T15:09:25;3.67;;;2.60;;
9888;SDS011;4983;42.112;24.738;2023-07-13T15:11:53;3.50;;;2.80;;